Barbarossa — ZDFA4 — position and weather

sailwx.info

Track history (hours):
 
Tides and Currents Weather Stations Pressure Air Temp Water Temp Dewpoint Dewpoint Depression Visibility Wind Speed Wind Dir Waves Ship Positions

Barbarossa

Last reported at 2016-Aug-24 04:34 UTC. Time now 2016-Aug-24 06:45 UTC.
Position N 53°32' E 009°58'.

Length 83 m; draft 4.2 m.

Type: Cargo ship. MMSI: 236029000.

Date/timePositionNaut miles runAvg speedWind from/ knotsBaromVisibWave heightAir tempDewpointWater temp
2016-Aug-24 04:34N 53°32' E 009°58'0 0.0
2016-Aug-24 03:34N 53°32' E 009°58'0 0.0
2016-Aug-24 02:34N 53°32' E 009°58'0 0.0
2016-Aug-24 01:33N 53°32' E 009°58'0 0.0
2016-Aug-24 00:33N 53°32' E 009°58'0 0.0
2016-Aug-23 23:33N 53°32' E 009°58'0 0.0
2016-Aug-23 22:33N 53°32' E 009°58'0 0.0
2016-Aug-23 21:34N 53°32' E 009°58'0 0.0
2016-Aug-23 20:33N 53°32' E 009°58'0 0.0
2016-Aug-23 19:33N 53°32' E 009°58'0 0.0
2016-Aug-23 18:33N 53°32' E 009°58'0 0.0
2016-Aug-23 17:34N 53°32' E 009°58'0 0.0
2016-Aug-23 16:33N 53°32' E 009°58'0 0.0
2016-Aug-23 15:33N 53°32' E 009°58'0 0.0
2016-Aug-23 14:33N 53°32' E 009°58'0 0.0
2016-Aug-23 13:33N 53°32' E 009°58'0 0.0
2016-Aug-23 12:34N 53°32' E 009°58'0 0.0
2016-Aug-23 11:34N 53°32' E 009°58'0 0.0
2016-Aug-23 10:33N 53°32' E 009°58'0 0.0
2016-Aug-23 09:34N 53°32' E 009°58'0 0.0
2016-Aug-23 08:34N 53°32' E 009°58'0 0.0
2016-Aug-23 07:34N 53°32' E 009°58'1 1.0
2016-Aug-23 06:34N 53°31' E 009°57'0 0.0
2016-Aug-23 05:34N 53°31' E 009°57'0 0.0
2016-Aug-23 04:33N 53°31' E 009°57'0 0.0
2016-Aug-23 03:34N 53°31' E 009°57'0 0.0
2016-Aug-23 02:34N 53°31' E 009°57'0 0.0
2016-Aug-23 01:34N 53°31' E 009°57'0 0.0
2016-Aug-23 00:33N 53°31' E 009°57'0 0.0
2016-Aug-22 23:33N 53°31' E 009°57'0 0.0
2016-Aug-22 22:33N 53°31' E 009°57'0 0.3
2016-Aug-22 21:34N 53°31' E 009°56'2 2.0
2016-Aug-22 20:33N 53°32' E 009°59'0 0.0
2016-Aug-22 19:34N 53°32' E 009°59'0 0.0
2016-Aug-22 18:34N 53°32' E 009°59'0 0.0
2016-Aug-22 17:33N 53°32' E 009°59'0 0.0
2016-Aug-22 16:34N 53°32' E 009°59'0 0.0
2016-Aug-22 15:33N 53°32' E 009°59'0 0.0
2016-Aug-22 14:34N 53°32' E 009°59'0 0.0
2016-Aug-22 13:34N 53°32' E 009°59'0 0.0
2016-Aug-22 12:33N 53°32' E 009°59'0 0.0
2016-Aug-22 11:33N 53°32' E 009°59'0 0.0
2016-Aug-22 10:33N 53°32' E 009°59'0 0.0
2016-Aug-22 09:33N 53°32' E 009°59'0 0.0
2016-Aug-22 08:33N 53°32' E 009°59'0 0.0
2016-Aug-22 07:33N 53°32' E 009°59'0 0.0
2016-Aug-22 06:33N 53°32' E 009°59'0 0.0
2016-Aug-22 05:33N 53°32' E 009°59'0 0.0
2016-Aug-22 04:34N 53°32' E 009°59'0 0.0
2016-Aug-22 03:34N 53°32' E 009°59'0 0.0
2016-Aug-22 02:33N 53°32' E 009°59'0 0.0
2016-Aug-22 01:33N 53°32' E 009°59'0 0.0
2016-Aug-22 00:34N 53°32' E 009°59'0 0.0
2016-Aug-21 23:34N 53°32' E 009°59'0 0.0
2016-Aug-21 22:33N 53°32' E 009°59'0 0.1
2016-Aug-21 21:33N 53°32' E 009°59'7 7.4
2016-Aug-21 20:33N 53°33' E 009°47'8 8.4
2016-Aug-21 19:34N 53°37' E 009°34'9 8.6
2016-Aug-21 18:33N 53°44' E 009°26'9 9.2
2016-Aug-21 17:33N 53°52' E 009°18'6 5.5
2016-Aug-21 16:33N 53°54' E 009°09'6 5.7
2016-Aug-21 15:34N 53°58' E 009°15'8 8.3
2016-Aug-21 14:33N 54°06' E 009°20'26 6.1
2016-Aug-21 10:19N 54°21' E 009°56'5 6.3
2016-Aug-21 09:33N 54°22' E 010°04'3 3.0
2016-Aug-21 08:33N 54°22' E 010°09'2 2.2
2016-Aug-21 07:34N 54°23' E 010°12'1110.0
2016-Aug-21 06:29N 54°31' E 010°24'1010.7
2016-Aug-21 05:31N 54°35' E 010°41'1011.0
2016-Aug-21 04:33N 54°36' E 010°59'1110.9
2016-Aug-21 03:33N 54°34' E 011°17'1211.6
2016-Aug-21 02:33N 54°29' E 011°36'1111.2
2016-Aug-21 01:34N 54°26' E 011°54'1010.3
2016-Aug-21 00:33N 54°30' E 012°11'1111.1
2016-Aug-20 23:33N 54°39' E 012°21'1211.6
2016-Aug-20 22:33N 54°46' E 012°38'1311.1
2016-Aug-20 21:23N 54°51' E 012°58'911.5
2016-Aug-20 20:33N 54°54' E 013°14'2311.5
2016-Aug-20 18:33N 55°02' E 013°52'1111.0
2016-Aug-20 17:33N 55°08' E 014°08'1111.3
2016-Aug-20 16:33N 55°17' E 014°20'1111.0
2016-Aug-20 15:33N 55°25' E 014°32'1110.8
2016-Aug-20 14:33N 55°31' E 014°48'1110.9
2016-Aug-20 13:33N 55°37' E 015°05'1211.3
2016-Aug-20 12:28N 55°43' E 015°23'1111.5
2016-Aug-20 11:31N 55°49' E 015°40'1111.2
2016-Aug-20 10:33N 55°53' E 015°57'1111.4
2016-Aug-20 09:33N 55°59' E 016°15'31710.8
2016-Aug-19 04:14N 59°39' E 023°24'811.5
2016-Aug-19 03:31N 59°42' E 023°39'1111.3
2016-Aug-19 02:33N 59°44' E 024°00'7710.9
2016-Aug-18 19:33N 60°12' E 026°23'1111.0
2016-Aug-18 18:33N 60°20' E 026°37'1111.2
2016-Aug-18 17:33N 60°26' E 026°57'9 8.6
2016-Aug-18 16:33N 60°32' E 027°10'0 0.1
2016-Aug-18 15:29N 60°32' E 027°10'0 0.0
2016-Aug-18 07:26N 60°32' E 027°10'0 0.0
2016-Aug-18 05:28N 60°32' E 027°10'0 0.0
2016-Aug-18 03:27N 60°32' E 027°10'0 0.0
2016-Aug-18 02:24N 60°32' E 027°10'0 0.0
2016-Aug-17 23:04N 60°32' E 027°10'0 0.0
2016-Aug-17 13:30N 60°32' E 027°10'0 0.0
2016-Aug-17 08:31N 60°32' E 027°10'0 0.0
2016-Aug-17 04:29N 60°32' E 027°10'0 0.0
2016-Aug-16 19:07N 60°32' E 027°10'0 0.0
2016-Aug-16 18:31N 60°32' E 027°10'0 0.0
2016-Aug-16 17:30N 60°32' E 027°10'0 0.0
2016-Aug-16 16:32N 60°32' E 027°10'0 0.0
2016-Aug-16 15:30N 60°32' E 027°10'0 0.0
2016-Aug-16 14:32N 60°32' E 027°10'  
Track history (hours):
 
Tides and Currents Weather Stations Pressure Air Temp Water Temp Dewpoint Dewpoint Depression Visibility Wind Speed Wind Dir Waves Ship Positions

Barbarossa

Last reported at 2016-Aug-24 04:34 UTC. Time now 2016-Aug-24 06:45 UTC.
Position N 53°32' E 009°58'.

Length 83 m; draft 4.2 m.

Type: Cargo ship. MMSI: 236029000.

Date/timePositionNaut miles runAvg speedWind from/ knotsBaromVisibWave heightAir tempDewpointWater temp
2016-Aug-24 04:34N 53°32' E 009°58'0 0.0
2016-Aug-24 03:34N 53°32' E 009°58'0 0.0
2016-Aug-24 02:34N 53°32' E 009°58'0 0.0
2016-Aug-24 01:33N 53°32' E 009°58'0 0.0
2016-Aug-24 00:33N 53°32' E 009°58'0 0.0
2016-Aug-23 23:33N 53°32' E 009°58'0 0.0
2016-Aug-23 22:33N 53°32' E 009°58'0 0.0
2016-Aug-23 21:34N 53°32' E 009°58'0 0.0
2016-Aug-23 20:33N 53°32' E 009°58'0 0.0
2016-Aug-23 19:33N 53°32' E 009°58'0 0.0
2016-Aug-23 18:33N 53°32' E 009°58'0 0.0
2016-Aug-23 17:34N 53°32' E 009°58'0 0.0
2016-Aug-23 16:33N 53°32' E 009°58'0 0.0
2016-Aug-23 15:33N 53°32' E 009°58'0 0.0
2016-Aug-23 14:33N 53°32' E 009°58'0 0.0
2016-Aug-23 13:33N 53°32' E 009°58'0 0.0
2016-Aug-23 12:34N 53°32' E 009°58'0 0.0
2016-Aug-23 11:34N 53°32' E 009°58'0 0.0
2016-Aug-23 10:33N 53°32' E 009°58'0 0.0
2016-Aug-23 09:34N 53°32' E 009°58'0 0.0
2016-Aug-23 08:34N 53°32' E 009°58'0 0.0
2016-Aug-23 07:34N 53°32' E 009°58'1 1.0
2016-Aug-23 06:34N 53°31' E 009°57'0 0.0
2016-Aug-23 05:34N 53°31' E 009°57'0 0.0
2016-Aug-23 04:33N 53°31' E 009°57'0 0.0
2016-Aug-23 03:34N 53°31' E 009°57'0 0.0
2016-Aug-23 02:34N 53°31' E 009°57'0 0.0
2016-Aug-23 01:34N 53°31' E 009°57'0 0.0
2016-Aug-23 00:33N 53°31' E 009°57'0 0.0
2016-Aug-22 23:33N 53°31' E 009°57'0 0.0
2016-Aug-22 22:33N 53°31' E 009°57'0 0.3
2016-Aug-22 21:34N 53°31' E 009°56'2 2.0
2016-Aug-22 20:33N 53°32' E 009°59'0 0.0
2016-Aug-22 19:34N 53°32' E 009°59'0 0.0
2016-Aug-22 18:34N 53°32' E 009°59'0 0.0
2016-Aug-22 17:33N 53°32' E 009°59'0 0.0
2016-Aug-22 16:34N 53°32' E 009°59'0 0.0
2016-Aug-22 15:33N 53°32' E 009°59'0 0.0
2016-Aug-22 14:34N 53°32' E 009°59'0 0.0
2016-Aug-22 13:34N 53°32' E 009°59'0 0.0
2016-Aug-22 12:33N 53°32' E 009°59'0 0.0
2016-Aug-22 11:33N 53°32' E 009°59'0 0.0
2016-Aug-22 10:33N 53°32' E 009°59'0 0.0
2016-Aug-22 09:33N 53°32' E 009°59'0 0.0
2016-Aug-22 08:33N 53°32' E 009°59'0 0.0
2016-Aug-22 07:33N 53°32' E 009°59'0 0.0
2016-Aug-22 06:33N 53°32' E 009°59'0 0.0
2016-Aug-22 05:33N 53°32' E 009°59'0 0.0
2016-Aug-22 04:34N 53°32' E 009°59'0 0.0
2016-Aug-22 03:34N 53°32' E 009°59'0 0.0
2016-Aug-22 02:33N 53°32' E 009°59'0 0.0
2016-Aug-22 01:33N 53°32' E 009°59'0 0.0
2016-Aug-22 00:34N 53°32' E 009°59'0 0.0
2016-Aug-21 23:34N 53°32' E 009°59'0 0.0
2016-Aug-21 22:33N 53°32' E 009°59'0 0.1
2016-Aug-21 21:33N 53°32' E 009°59'7 7.4
2016-Aug-21 20:33N 53°33' E 009°47'8 8.4
2016-Aug-21 19:34N 53°37' E 009°34'9 8.6
2016-Aug-21 18:33N 53°44' E 009°26'9 9.2
2016-Aug-21 17:33N 53°52' E 009°18'6 5.5
2016-Aug-21 16:33N 53°54' E 009°09'6 5.7
2016-Aug-21 15:34N 53°58' E 009°15'8 8.3
2016-Aug-21 14:33N 54°06' E 009°20'26 6.1
2016-Aug-21 10:19N 54°21' E 009°56'5 6.3
2016-Aug-21 09:33N 54°22' E 010°04'3 3.0
2016-Aug-21 08:33N 54°22' E 010°09'2 2.2
2016-Aug-21 07:34N 54°23' E 010°12'1110.0
2016-Aug-21 06:29N 54°31' E 010°24'1010.7
2016-Aug-21 05:31N 54°35' E 010°41'1011.0
2016-Aug-21 04:33N 54°36' E 010°59'1110.9
2016-Aug-21 03:33N 54°34' E 011°17'1211.6
2016-Aug-21 02:33N 54°29' E 011°36'1111.2
2016-Aug-21 01:34N 54°26' E 011°54'1010.3
2016-Aug-21 00:33N 54°30' E 012°11'1111.1
2016-Aug-20 23:33N 54°39' E 012°21'1211.6
2016-Aug-20 22:33N 54°46' E 012°38'1311.1
2016-Aug-20 21:23N 54°51' E 012°58'911.5
2016-Aug-20 20:33N 54°54' E 013°14'2311.5
2016-Aug-20 18:33N 55°02' E 013°52'1111.0
2016-Aug-20 17:33N 55°08' E 014°08'1111.3
2016-Aug-20 16:33N 55°17' E 014°20'1111.0
2016-Aug-20 15:33N 55°25' E 014°32'1110.8
2016-Aug-20 14:33N 55°31' E 014°48'1110.9
2016-Aug-20 13:33N 55°37' E 015°05'1211.3
2016-Aug-20 12:28N 55°43' E 015°23'1111.5
2016-Aug-20 11:31N 55°49' E 015°40'1111.2
2016-Aug-20 10:33N 55°53' E 015°57'1111.4
2016-Aug-20 09:33N 55°59' E 016°15'31710.8
2016-Aug-19 04:14N 59°39' E 023°24'811.5
2016-Aug-19 03:31N 59°42' E 023°39'1111.3
2016-Aug-19 02:33N 59°44' E 024°00'7710.9
2016-Aug-18 19:33N 60°12' E 026°23'1111.0
2016-Aug-18 18:33N 60°20' E 026°37'1111.2
2016-Aug-18 17:33N 60°26' E 026°57'9 8.6
2016-Aug-18 16:33N 60°32' E 027°10'0 0.1
2016-Aug-18 15:29N 60°32' E 027°10'0 0.0
2016-Aug-18 07:26N 60°32' E 027°10'0 0.0
2016-Aug-18 05:28N 60°32' E 027°10'0 0.0
2016-Aug-18 03:27N 60°32' E 027°10'0 0.0
2016-Aug-18 02:24N 60°32' E 027°10'0 0.0
2016-Aug-17 23:04N 60°32' E 027°10'0 0.0
2016-Aug-17 13:30N 60°32' E 027°10'0 0.0
2016-Aug-17 08:31N 60°32' E 027°10'0 0.0
2016-Aug-17 04:29N 60°32' E 027°10'0 0.0
2016-Aug-16 19:07N 60°32' E 027°10'0 0.0
2016-Aug-16 18:31N 60°32' E 027°10'0 0.0
2016-Aug-16 17:30N 60°32' E 027°10'0 0.0
2016-Aug-16 16:32N 60°32' E 027°10'0 0.0
2016-Aug-16 15:30N 60°32' E 027°10'0 0.0
2016-Aug-16 14:32N 60°32' E 027°10'  

Dump ship's entire track history